createdAt,value
2023-03-25T00:01:37.827Z,8.88
2023-03-25T00:04:06.702Z,7.85
2023-03-25T00:06:35.755Z,10.85
2023-03-25T00:09:06.644Z,11.15
2023-03-25T00:11:35.466Z,9.45
2023-03-25T00:14:04.588Z,11.82
2023-03-25T00:16:33.442Z,7.30
2023-03-25T00:19:02.593Z,8.50
2023-03-25T00:21:33.573Z,13.00
2023-03-25T00:24:02.546Z,9.98
2023-03-25T00:26:35.313Z,11.77
2023-03-25T00:29:04.304Z,9.30
2023-03-25T00:31:32.745Z,7.82
2023-03-25T00:34:01.673Z,12.60
2023-03-25T00:36:30.465Z,10.90
2023-03-25T00:38:59.680Z,9.50
2023-03-25T00:41:28.651Z,10.13
2023-03-25T00:44:00.067Z,9.68
2023-03-25T00:46:30.256Z,11.32
2023-03-25T00:51:31.347Z,10.57
2023-03-25T00:54:01.515Z,10.38
2023-03-25T00:56:31.723Z,13.60
2023-03-25T01:01:31.021Z,10.35
2023-03-25T01:04:00.885Z,13.15
2023-03-25T01:06:33.725Z,14.98
2023-03-25T01:09:07.477Z,16.00
2023-03-25T01:11:38.524Z,13.25
2023-03-25T01:14:13.121Z,13.48
2023-03-25T01:16:41.781Z,10.80
2023-03-25T01:19:11.031Z,12.07
2023-03-25T01:21:40.715Z,16.40
2023-03-25T01:24:13.228Z,13.98
2023-03-25T01:26:43.722Z,12.35
2023-03-25T01:29:16.028Z,10.63
2023-03-25T01:31:44.706Z,11.23
2023-03-25T01:34:13.995Z,13.02
2023-03-25T01:36:46.921Z,12.73
2023-03-25T01:39:18.872Z,14.88
2023-03-25T01:41:50.607Z,11.00
2023-03-25T01:44:57.588Z,11.23
2023-03-25T01:47:27.889Z,14.90
2023-03-25T01:49:56.745Z,19.50
2023-03-25T01:52:27.768Z,14.93
2023-03-25T01:54:57.369Z,15.45
2023-03-25T01:57:26.855Z,15.55
2023-03-25T01:59:56.292Z,11.75
2023-03-25T02:02:36.661Z,13.70
2023-03-25T02:05:10.871Z,17.35
2023-03-25T02:07:42.891Z,18.73
2023-03-25T02:10:13.526Z,12.30
2023-03-25T02:12:42.992Z,13.55
2023-03-25T02:15:14.447Z,13.48
2023-03-25T02:20:38.906Z,12.52
2023-03-25T02:23:43.112Z,12.77
2023-03-25T02:26:56.526Z,14.05
2023-03-25T02:29:34.162Z,18.23
2023-03-25T02:32:17.480Z,13.48
2023-03-25T02:34:56.614Z,14.63
2023-03-25T02:37:49.124Z,14.40
2023-03-25T02:40:26.822Z,16.35
2023-03-25T02:43:01.605Z,14.93
2023-03-25T02:45:33.425Z,14.20
2023-03-25T02:48:05.177Z,16.70
2023-03-25T02:50:36.803Z,19.33
2023-03-25T02:53:11.027Z,14.80
2023-03-25T02:55:42.529Z,13.07
2023-03-25T02:58:14.767Z,14.43
2023-03-25T03:00:44.006Z,16.02
2023-03-25T03:03:13.501Z,17.63
2023-03-25T03:05:44.735Z,15.15
2023-03-25T03:08:32.548Z,15.13
2023-03-25T03:11:06.950Z,14.43
2023-03-25T03:13:47.067Z,20.50
2023-03-25T03:16:22.014Z,13.93
2023-03-25T03:18:58.938Z,16.73
2023-03-25T03:21:33.800Z,15.48
2023-03-25T03:24:08.245Z,16.98
2023-03-25T03:26:40.341Z,15.13
2023-03-25T03:29:13.601Z,15.60
2023-03-25T03:31:56.604Z,17.83
2023-03-25T03:34:45.034Z,18.42
2023-03-25T03:37:16.362Z,17.43
2023-03-25T03:39:48.937Z,20.67
2023-03-25T03:42:21.147Z,21.95
2023-03-25T03:44:53.312Z,19.83
2023-03-25T03:47:26.343Z,17.83
2023-03-25T03:49:57.450Z,19.98
2023-03-25T03:52:29.396Z,20.05
2023-03-25T03:55:02.151Z,20.55
2023-03-25T03:57:34.560Z,22.55
2023-03-25T04:00:07.156Z,24.35
2023-03-25T04:02:44.131Z,21.75
2023-03-25T04:05:14.352Z,22.10
2023-03-25T04:07:45.814Z,21.45
2023-03-25T04:10:21.150Z,22.15
2023-03-25T04:12:52.487Z,21.08
2023-03-25T04:15:21.672Z,24.15
2023-03-25T04:17:51.111Z,21.70
2023-03-25T04:20:24.879Z,21.92
2023-03-25T04:22:53.822Z,22.42
2023-03-25T04:25:25.345Z,22.83
2023-03-25T04:27:59.104Z,24.88
2023-03-25T04:30:29.566Z,23.30
2023-03-25T04:35:27.419Z,25.50
2023-03-25T04:37:57.404Z,24.27
2023-03-25T04:40:27.960Z,23.25
2023-03-25T04:45:28.960Z,21.92
2023-03-25T04:47:58.155Z,29.50
2023-03-25T04:50:28.882Z,21.67
2023-03-25T04:55:29.989Z,24.03
2023-03-25T04:57:58.977Z,24.98
2023-03-25T05:00:28.283Z,23.33
2023-03-25T05:03:02.051Z,24.13
2023-03-25T05:05:31.465Z,23.10
2023-03-25T05:08:01.614Z,23.17
2023-03-25T05:10:31.590Z,20.90
2023-03-25T05:15:32.696Z,22.15
2023-03-25T05:18:02.133Z,24.48
2023-03-25T05:20:33.125Z,27.30
2023-03-25T05:23:02.081Z,26.58
2023-03-25T05:25:34.588Z,30.60
2023-03-25T05:28:06.003Z,34.63
2023-03-25T05:30:39.307Z,42.63
2023-03-25T05:33:08.449Z,44.63
2023-03-25T05:35:37.920Z,39.92
2023-03-25T05:38:08.253Z,37.97
2023-03-25T05:40:38.214Z,36.95
2023-03-25T05:45:36.651Z,32.85
2023-03-25T05:48:06.178Z,32.60
2023-03-25T05:50:35.136Z,32.07
2023-03-25T05:53:04.192Z,30.65
2023-03-25T05:55:33.555Z,30.80
2023-03-25T05:58:09.213Z,31.10
2023-03-25T06:00:38.933Z,29.27
2023-03-25T06:03:08.732Z,33.35
2023-03-25T06:05:40.375Z,26.27
2023-03-25T06:08:09.646Z,27.48
2023-03-25T06:10:38.453Z,29.27
2023-03-25T06:13:08.821Z,22.63
2023-03-25T06:18:10.686Z,22.48
2023-03-25T06:20:39.624Z,21.65
2023-03-25T06:23:10.055Z,20.83
2023-03-25T06:25:38.596Z,18.48
2023-03-25T06:28:08.866Z,24.80
2023-03-25T06:33:06.335Z,19.90
2023-03-25T06:35:35.330Z,26.65
2023-03-25T06:38:04.219Z,18.55
2023-03-25T06:40:43.666Z,22.00
2023-03-25T06:43:14.983Z,17.63
2023-03-25T06:45:57.726Z,19.27
2023-03-25T06:48:37.697Z,19.65
2023-03-25T06:51:07.083Z,19.77
2023-03-25T06:53:35.916Z,22.75
2023-03-25T06:56:04.926Z,18.15
2023-03-25T06:58:35.771Z,21.92
2023-03-25T07:01:07.731Z,22.85
2023-03-25T07:03:37.750Z,20.77
2023-03-25T07:06:07.747Z,16.88
2023-03-25T07:08:36.566Z,17.40
2023-03-25T07:11:07.468Z,17.33
2023-03-25T07:13:37.464Z,18.67
2023-03-25T07:16:07.056Z,18.27
2023-03-25T07:18:35.982Z,14.43
2023-03-25T07:21:05.153Z,14.65
2023-03-25T07:23:34.061Z,14.52
2023-03-25T07:26:02.944Z,16.05
2023-03-25T07:28:31.462Z,11.13
2023-03-25T07:31:01.856Z,12.32
2023-03-25T07:33:30.849Z,14.52
2023-03-25T07:35:59.901Z,14.63
2023-03-25T07:38:28.798Z,12.40
2023-03-25T07:40:57.744Z,10.63
2023-03-25T07:43:26.568Z,12.02
2023-03-25T07:45:57.985Z,13.25
2023-03-25T07:48:31.581Z,15.63
2023-03-25T07:51:00.461Z,11.20
2023-03-25T07:53:29.328Z,10.48
2023-03-25T07:55:58.102Z,13.18
2023-03-25T07:58:26.631Z,16.20
2023-03-25T08:00:58.215Z,12.95
2023-03-25T08:03:28.104Z,11.75
2023-03-25T08:06:02.024Z,10.95
2023-03-25T08:08:31.488Z,12.13
2023-03-25T08:11:00.647Z,13.43
2023-03-25T08:13:29.335Z,11.35
2023-03-25T08:15:58.585Z,13.70
2023-03-25T08:18:27.637Z,11.82
2023-03-25T08:20:56.719Z,15.65
2023-03-25T08:23:26.988Z,10.85
2023-03-25T08:25:56.570Z,10.68
2023-03-25T08:28:27.071Z,12.20
2023-03-25T08:30:56.080Z,9.02
2023-03-25T08:33:27.767Z,9.00
2023-03-25T08:35:58.733Z,8.25
2023-03-25T08:38:33.887Z,8.00
2023-03-25T08:41:03.464Z,5.85
2023-03-25T08:43:32.564Z,6.20
2023-03-25T08:46:01.534Z,9.60
2023-03-25T08:48:30.477Z,13.27
2023-03-25T08:50:59.518Z,8.90
2023-03-25T08:53:29.910Z,8.27
2023-03-25T08:55:59.691Z,10.95
2023-03-25T08:58:28.625Z,8.55
2023-03-25T09:00:57.692Z,8.35
2023-03-25T09:03:28.217Z,8.60
2023-03-25T09:05:57.084Z,7.20
2023-03-25T09:08:26.317Z,7.13
2023-03-25T09:10:57.959Z,5.93
2023-03-25T09:13:26.909Z,8.63
2023-03-25T09:15:55.852Z,6.30
2023-03-25T09:18:24.717Z,6.65
2023-03-25T09:20:53.637Z,6.75
2023-03-25T09:23:22.509Z,6.38
2023-03-25T09:25:51.194Z,7.90
2023-03-25T09:28:21.968Z,10.60
2023-03-25T09:30:50.849Z,8.13
2023-03-25T09:33:19.840Z,8.27
2023-03-25T09:35:48.836Z,6.32
2023-03-25T09:38:18.113Z,10.85
2023-03-25T09:40:46.981Z,9.23
2023-03-25T09:43:26.841Z,7.53
2023-03-25T09:45:56.884Z,7.65
2023-03-25T09:48:29.939Z,5.32
2023-03-25T09:51:03.065Z,7.63
2023-03-25T09:53:37.677Z,8.07
2023-03-25T09:56:11.771Z,10.02
2023-03-25T09:58:45.083Z,7.05
2023-03-25T10:01:27.217Z,9.43
2023-03-25T10:04:04.679Z,9.80
2023-03-25T10:06:34.213Z,8.50
2023-03-25T10:09:13.788Z,11.30
2023-03-25T10:11:48.975Z,15.13
2023-03-25T10:14:21.756Z,9.23
2023-03-25T10:17:04.954Z,8.45
2023-03-25T10:19:44.532Z,6.38
2023-03-25T10:22:18.521Z,6.05
2023-03-25T10:24:50.313Z,8.80
2023-03-25T10:27:24.180Z,4.20
2023-03-25T10:29:57.015Z,8.75
2023-03-25T10:32:33.208Z,8.20
2023-03-25T10:35:04.066Z,8.48
2023-03-25T10:37:35.773Z,4.28
2023-03-25T10:40:16.727Z,5.28
2023-03-25T10:42:55.625Z,5.53
2023-03-25T10:45:26.350Z,5.18
2023-03-25T10:47:56.645Z,5.13
2023-03-25T10:50:26.330Z,6.65
2023-03-25T10:52:56.837Z,5.68
2023-03-25T10:55:28.486Z,5.65
2023-03-25T10:57:57.977Z,5.93
2023-03-25T11:00:30.419Z,6.97
2023-03-25T11:02:59.362Z,6.50
2023-03-25T11:05:30.692Z,5.97
2023-03-25T11:08:06.645Z,5.57
2023-03-25T11:10:38.111Z,5.25
2023-03-25T11:13:15.157Z,7.10
2023-03-25T11:15:45.624Z,7.15
2023-03-25T11:18:20.854Z,5.35
2023-03-25T11:20:51.617Z,6.55
2023-03-25T11:23:26.385Z,6.53
2023-03-25T11:25:55.920Z,4.00
2023-03-25T11:28:33.023Z,4.10
2023-03-25T11:31:15.297Z,7.03
2023-03-25T11:33:46.143Z,8.80
2023-03-25T11:36:27.355Z,5.53
2023-03-25T11:39:01.317Z,9.48
2023-03-25T11:41:32.192Z,5.63
2023-03-25T11:44:02.411Z,3.92
2023-03-25T11:46:32.864Z,5.00
2023-03-25T11:49:12.094Z,5.22
2023-03-25T11:51:41.223Z,5.78
2023-03-25T11:54:13.454Z,5.50
2023-03-25T11:56:45.064Z,5.53
2023-03-25T11:59:23.707Z,4.72
2023-03-25T12:02:02.839Z,4.78
2023-03-25T12:04:32.757Z,7.95
2023-03-25T12:07:03.107Z,9.20
2023-03-25T12:09:33.377Z,9.38
2023-03-25T12:12:18.361Z,6.63
2023-03-25T12:14:54.829Z,4.78
2023-03-25T12:17:34.058Z,7.63
2023-03-25T12:20:11.560Z,6.00
2023-03-25T12:22:52.897Z,7.75
2023-03-25T12:25:28.804Z,6.78
2023-03-25T12:28:12.767Z,4.78
2023-03-25T12:30:50.191Z,4.32
2023-03-25T12:33:34.954Z,7.38
2023-03-25T12:36:25.366Z,5.35
2023-03-25T12:41:33.201Z,5.05
2023-03-25T12:44:05.330Z,6.80
2023-03-25T12:46:55.076Z,8.52
2023-03-25T12:49:36.770Z,6.55
2023-03-25T12:52:10.606Z,10.10
2023-03-25T12:54:56.632Z,4.22
2023-03-25T12:57:39.350Z,6.82
2023-03-25T13:00:34.534Z,13.95
2023-03-25T13:03:21.615Z,11.43
2023-03-25T13:05:56.529Z,6.47
2023-03-25T13:08:29.506Z,6.03
2023-03-25T13:11:01.258Z,5.28
2023-03-25T13:13:31.622Z,8.80
2023-03-25T13:18:36.902Z,8.63
2023-03-25T13:21:14.081Z,6.88
2023-03-25T13:23:44.153Z,8.40
2023-03-25T13:26:14.548Z,8.37
2023-03-25T13:28:46.940Z,10.48
2023-03-25T13:31:18.606Z,9.77
2023-03-25T13:33:51.699Z,12.68
2023-03-25T13:36:28.021Z,11.63
2023-03-25T13:38:59.127Z,11.82
2023-03-25T13:41:31.575Z,16.88
2023-03-25T13:44:05.737Z,9.77
2023-03-25T13:46:38.325Z,9.35
2023-03-25T13:49:13.988Z,10.20
2023-03-25T13:51:44.497Z,8.35
2023-03-25T13:57:21.159Z,11.73
2023-03-25T14:00:10.183Z,9.50
2023-03-25T14:02:57.195Z,8.02
2023-03-25T14:05:53.806Z,9.40
2023-03-25T14:08:48.859Z,8.68
2023-03-25T14:11:23.052Z,8.77
2023-03-25T14:13:55.509Z,8.25
2023-03-25T14:16:27.469Z,7.65
2023-03-25T14:19:00.660Z,8.05
2023-03-25T14:21:35.847Z,10.85
2023-03-25T14:24:08.985Z,7.43
2023-03-25T14:26:43.853Z,11.07
2023-03-25T14:29:22.029Z,7.35
2023-03-25T14:32:05.359Z,6.50
2023-03-25T14:34:34.319Z,5.20
2023-03-25T14:37:29.659Z,6.75
2023-03-25T14:40:06.639Z,7.53
2023-03-25T14:42:43.521Z,5.57
2023-03-25T14:45:42.358Z,8.32
2023-03-25T14:48:26.508Z,4.80
2023-03-25T14:51:17.875Z,2.38
2023-03-25T14:53:53.123Z,4.55
2023-03-25T14:56:25.758Z,4.22
2023-03-25T14:58:55.364Z,1.50
2023-03-25T15:01:30.242Z,2.15
2023-03-25T15:04:11.887Z,1.33
2023-03-25T15:06:40.857Z,2.35
2023-03-25T15:09:13.142Z,1.45
2023-03-25T15:11:45.268Z,1.58
2023-03-25T15:14:17.447Z,1.65
2023-03-25T15:17:05.588Z,2.42
2023-03-25T15:20:10.579Z,1.70
2023-03-25T15:22:39.717Z,1.30
2023-03-25T15:25:14.588Z,1.55
2023-03-25T15:27:56.871Z,2.70
2023-03-25T15:30:57.458Z,3.85
2023-03-25T15:36:29.437Z,4.50
2023-03-25T15:39:12.876Z,5.38
2023-03-25T15:42:03.063Z,5.07
2023-03-25T15:44:51.999Z,4.68
2023-03-25T15:47:32.292Z,6.60
2023-03-25T15:50:20.118Z,2.85
2023-03-25T15:53:43.012Z,4.97
2023-03-25T15:56:14.008Z,3.20
2023-03-25T15:58:48.774Z,4.60
2023-03-25T16:01:23.036Z,2.78
2023-03-25T16:03:59.057Z,3.40
2023-03-25T16:06:28.645Z,4.03
2023-03-25T16:08:59.607Z,7.13
2023-03-25T16:11:29.722Z,5.20
2023-03-25T16:14:06.737Z,3.63
2023-03-25T16:16:38.545Z,9.13
2023-03-25T16:19:11.665Z,4.85
2023-03-25T16:21:41.315Z,3.50
2023-03-25T16:24:13.803Z,7.55
2023-03-25T16:26:44.247Z,9.55
2023-03-25T16:31:56.558Z,6.03
2023-03-25T16:34:26.296Z,6.32
2023-03-25T16:36:56.136Z,5.50
2023-03-25T16:39:26.290Z,7.05
2023-03-25T16:42:02.798Z,4.57
2023-03-25T16:44:31.871Z,7.82
2023-03-25T16:47:02.503Z,5.88
2023-03-25T16:52:03.548Z,6.40
2023-03-25T16:54:37.935Z,8.23
2023-03-25T16:57:09.174Z,8.85
2023-03-25T16:59:39.047Z,8.68
2023-03-25T17:02:25.362Z,6.47
2023-03-25T17:04:58.095Z,8.85
2023-03-25T17:07:29.788Z,7.20
2023-03-25T17:10:00.792Z,9.32
2023-03-25T17:12:30.823Z,11.55
2023-03-25T17:15:06.925Z,7.72
2023-03-25T17:17:41.633Z,10.23
2023-03-25T17:20:18.107Z,10.25
2023-03-25T17:22:59.483Z,10.32
2023-03-25T17:25:32.359Z,12.75
2023-03-25T17:28:08.660Z,14.90
2023-03-25T17:30:43.572Z,11.73
2023-03-25T17:33:16.776Z,15.48
2023-03-25T17:35:46.899Z,15.88
2023-03-25T17:38:22.790Z,16.45
2023-03-25T17:40:59.759Z,14.82
2023-03-25T17:43:29.341Z,17.73
2023-03-25T17:45:58.291Z,17.63
2023-03-25T17:48:28.679Z,16.80
2023-03-25T17:53:27.008Z,14.50
2023-03-25T17:55:55.762Z,14.43
2023-03-25T17:58:24.572Z,15.48
2023-03-25T18:00:53.511Z,20.45
2023-03-25T18:03:25.389Z,15.43
2023-03-25T18:05:55.902Z,12.95
2023-03-25T18:08:25.958Z,17.27
2023-03-25T18:10:55.563Z,18.83
2023-03-25T18:13:25.229Z,22.20
2023-03-25T18:15:55.004Z,17.75
2023-03-25T18:18:25.610Z,20.42
2023-03-25T18:20:57.183Z,17.73
2023-03-25T18:23:26.097Z,17.42
2023-03-25T18:25:54.577Z,18.05
2023-03-25T18:28:24.960Z,18.65
2023-03-25T18:30:55.348Z,20.92
2023-03-25T18:33:24.871Z,18.98
2023-03-25T18:35:56.490Z,14.95
2023-03-25T18:38:27.649Z,17.10
2023-03-25T18:40:57.121Z,16.10
2023-03-25T18:43:26.064Z,15.38
2023-03-25T18:45:55.009Z,14.25
2023-03-25T18:48:24.135Z,12.23
2023-03-25T18:50:56.126Z,12.93
2023-03-25T18:53:27.452Z,9.45
2023-03-25T18:55:56.657Z,9.07
2023-03-25T18:58:27.334Z,8.27
2023-03-25T19:00:56.516Z,10.70
2023-03-25T19:03:30.629Z,7.45
2023-03-25T19:06:02.860Z,6.63
2023-03-25T19:08:31.696Z,8.70
2023-03-25T19:11:08.397Z,9.38
2023-03-25T19:13:48.113Z,7.95
2023-03-25T19:16:17.067Z,9.50
2023-03-25T19:18:47.469Z,5.20
2023-03-25T19:21:19.248Z,7.03
2023-03-25T19:23:48.456Z,8.00
2023-03-25T19:26:17.332Z,7.82
2023-03-25T19:28:46.449Z,7.65
2023-03-25T19:31:16.832Z,8.10
2023-03-25T19:33:46.214Z,6.38
2023-03-25T19:36:15.650Z,9.52
2023-03-25T19:38:46.259Z,10.30
2023-03-25T19:41:16.827Z,15.48
2023-03-25T19:43:45.402Z,17.73
2023-03-25T19:46:14.280Z,20.00
2023-03-25T19:48:43.341Z,14.75
2023-03-25T19:51:12.062Z,14.30
2023-03-25T19:53:40.860Z,10.65
2023-03-25T19:56:14.131Z,8.35
2023-03-25T19:58:42.638Z,10.48
2023-03-25T20:01:11.457Z,8.07
2023-03-25T20:03:41.324Z,8.65
2023-03-25T20:06:10.684Z,9.38
2023-03-25T20:08:39.508Z,8.98
2023-03-25T20:11:13.184Z,7.07
2023-03-25T20:13:41.665Z,6.13
2023-03-25T20:16:11.076Z,7.82
2023-03-25T20:18:41.458Z,6.73
2023-03-25T20:23:39.224Z,8.90
2023-03-25T20:26:08.271Z,9.40
2023-03-25T20:28:38.497Z,9.77
2023-03-25T20:31:18.563Z,11.27
2023-03-25T20:33:48.296Z,11.10
2023-03-25T20:36:17.115Z,11.63
2023-03-25T20:38:56.698Z,11.43
2023-03-25T20:43:56.309Z,10.38
2023-03-25T20:46:28.549Z,16.60
2023-03-25T20:48:57.996Z,13.05
2023-03-25T20:51:27.023Z,10.50
2023-03-25T20:53:57.072Z,10.73
2023-03-25T20:56:26.047Z,12.77
2023-03-25T20:58:55.941Z,9.13
2023-03-25T21:03:53.475Z,11.65
2023-03-25T21:06:24.827Z,12.50
2023-03-25T21:08:56.005Z,15.95
2023-03-25T21:11:25.054Z,12.80
2023-03-25T21:13:53.487Z,12.60
2023-03-25T21:16:23.820Z,14.63
2023-03-25T21:18:53.713Z,12.52
2023-03-25T21:21:24.330Z,15.18
2023-03-25T21:23:53.379Z,16.38
2023-03-25T21:26:26.017Z,15.57
2023-03-25T21:28:54.425Z,14.50
2023-03-25T21:31:24.801Z,14.32
2023-03-25T21:33:56.311Z,15.07
2023-03-25T21:36:27.252Z,14.57
2023-03-25T21:38:57.078Z,17.90
2023-03-25T21:41:26.144Z,23.25
2023-03-25T21:43:55.419Z,18.30
2023-03-25T21:46:27.303Z,15.05
2023-03-25T21:48:58.659Z,18.50
2023-03-25T21:51:30.704Z,16.27
2023-03-25T21:54:00.838Z,19.50
2023-03-25T21:56:33.535Z,17.27
2023-03-25T21:59:04.690Z,20.75
2023-03-25T22:01:35.931Z,18.65
2023-03-25T22:04:05.090Z,21.13
2023-03-25T22:06:35.762Z,17.52
2023-03-25T22:09:06.609Z,22.00
2023-03-25T22:11:37.618Z,19.25
2023-03-25T22:14:07.112Z,17.65
2023-03-25T22:16:37.314Z,19.85
2023-03-25T22:19:06.732Z,20.08
2023-03-25T22:21:38.182Z,17.10
2023-03-25T22:24:08.627Z,15.05
2023-03-25T22:26:39.411Z,17.55
2023-03-25T22:29:09.976Z,17.15
2023-03-25T22:34:15.471Z,16.63
2023-03-25T22:36:50.177Z,15.85
2023-03-25T22:39:20.680Z,15.70
2023-03-25T22:41:49.661Z,16.50
2023-03-25T22:44:18.506Z,15.95
2023-03-25T22:46:48.897Z,15.48
2023-03-25T22:49:18.056Z,17.08
2023-03-25T22:51:47.048Z,19.70
2023-03-25T22:54:16.258Z,19.77
2023-03-25T22:56:45.481Z,18.25
2023-03-25T22:59:15.480Z,21.77
2023-03-25T23:01:44.196Z,22.47
2023-03-25T23:04:14.448Z,20.70
2023-03-25T23:06:46.949Z,20.98
2023-03-25T23:09:40.076Z,23.58
2023-03-25T23:12:11.118Z,17.80
2023-03-25T23:14:40.724Z,21.52
2023-03-25T23:17:10.386Z,19.95
2023-03-25T23:19:40.445Z,17.20
2023-03-25T23:22:09.629Z,16.83
2023-03-25T23:24:39.236Z,19.00
2023-03-25T23:27:09.455Z,17.73
2023-03-25T23:32:09.608Z,14.23
2023-03-25T23:34:40.403Z,13.85
2023-03-25T23:37:10.364Z,15.77
2023-03-25T23:39:40.596Z,13.15
2023-03-25T23:44:38.429Z,14.00
2023-03-25T23:47:07.380Z,17.55
2023-03-25T23:49:38.486Z,16.30
2023-03-25T23:52:11.465Z,26.90
2023-03-25T23:54:41.278Z,17.83
2023-03-25T23:57:10.180Z,20.13
2023-03-25T23:59:38.967Z,16.73
